createdAt,value
2022-11-30T00:00:25.821Z,32.60
2022-11-30T00:05:28.003Z,32.60
2022-11-30T00:10:30.026Z,32.90
2022-11-30T00:15:33.019Z,32.50
2022-11-30T00:20:35.041Z,32.50
2022-11-30T00:25:37.605Z,32.50
2022-11-30T00:30:39.638Z,32.50
2022-11-30T00:35:41.762Z,32.50
2022-11-30T00:50:50.830Z,32.60
2022-11-30T00:55:53.353Z,32.70
2022-11-30T01:06:06.053Z,32.70
2022-11-30T01:11:14.722Z,32.80
2022-11-30T01:16:19.756Z,32.80
2022-11-30T01:21:25.234Z,32.90
2022-11-30T01:26:27.491Z,32.90
2022-11-30T01:36:32.438Z,32.80
2022-11-30T01:46:48.499Z,32.80
2022-11-30T01:51:58.537Z,32.60
2022-11-30T01:57:06.467Z,32.80
2022-11-30T02:02:08.773Z,32.80
2022-11-30T02:07:10.827Z,32.80
2022-11-30T02:12:26.834Z,32.90
2022-11-30T02:17:43.800Z,32.70
2022-11-30T02:23:23.028Z,32.90
2022-11-30T02:29:06.542Z,32.90
2022-11-30T02:34:12.466Z,33.20
2022-11-30T02:39:14.705Z,33.10
2022-11-30T02:44:17.668Z,33.10
2022-11-30T02:49:31.616Z,32.90
2022-11-30T02:54:34.733Z,33.00
2022-11-30T03:04:39.399Z,32.90
2022-11-30T03:09:41.581Z,32.90
2022-11-30T03:19:46.596Z,32.90
2022-11-30T03:24:48.817Z,32.90
2022-11-30T03:29:51.097Z,33.00
2022-11-30T03:45:00.679Z,32.80
2022-11-30T03:55:05.683Z,32.90
2022-11-30T04:00:08.417Z,33.00
2022-11-30T04:05:13.591Z,33.10
2022-11-30T04:10:15.563Z,33.20
2022-11-30T04:15:17.669Z,33.10
2022-11-30T04:20:19.753Z,33.20
2022-11-30T04:25:21.743Z,33.20
2022-11-30T04:30:23.743Z,33.10
2022-11-30T04:35:25.905Z,33.20
2022-11-30T04:40:28.083Z,33.10
2022-11-30T04:45:35.047Z,33.10
2022-11-30T04:50:37.761Z,33.20
2022-11-30T04:55:39.957Z,33.10
2022-11-30T05:00:42.000Z,33.10
2022-11-30T05:05:44.014Z,33.10
2022-11-30T05:10:51.610Z,33.30
2022-11-30T05:15:55.125Z,33.20
2022-11-30T05:20:57.292Z,33.20
2022-11-30T05:26:02.310Z,33.30
2022-11-30T05:31:05.535Z,33.20
2022-11-30T05:36:10.882Z,33.10
2022-11-30T05:41:14.599Z,33.10
2022-11-30T05:46:16.767Z,33.30
2022-11-30T05:51:20.195Z,33.30
2022-11-30T05:56:22.299Z,33.40
2022-11-30T06:01:27.793Z,33.20
2022-11-30T06:11:32.340Z,33.20
2022-11-30T06:16:34.511Z,33.20
2022-11-30T06:21:36.689Z,33.20
2022-11-30T06:26:39.276Z,33.30
2022-11-30T06:31:41.467Z,33.20
2022-11-30T06:36:43.537Z,33.30
2022-11-30T06:41:48.877Z,33.20
2022-11-30T06:46:53.547Z,33.30
2022-11-30T06:51:55.952Z,33.20
2022-11-30T06:56:58.146Z,33.50
2022-11-30T07:02:05.979Z,33.20
2022-11-30T07:07:10.276Z,33.90
2022-11-30T07:12:12.448Z,33.40
2022-11-30T07:17:14.489Z,33.30
2022-11-30T07:22:16.509Z,33.10
2022-11-30T07:32:21.368Z,33.10
2022-11-30T07:37:23.741Z,33.30
2022-11-30T07:42:25.822Z,33.50
2022-11-30T07:47:28.024Z,33.40
2022-11-30T07:52:31.156Z,33.40
2022-11-30T07:57:33.202Z,33.30
2022-11-30T08:02:35.328Z,33.40
2022-11-30T08:07:37.573Z,33.50
2022-11-30T08:12:39.670Z,33.70
2022-11-30T08:17:42.113Z,33.70
2022-11-30T08:22:44.167Z,33.60
2022-11-30T08:27:46.286Z,33.60
2022-11-30T08:32:48.344Z,33.60
2022-11-30T08:37:50.407Z,33.50
2022-11-30T08:42:52.474Z,33.40
2022-11-30T08:47:55.145Z,33.40
2022-11-30T08:53:01.756Z,33.50
2022-11-30T08:58:07.289Z,33.60
2022-11-30T09:03:09.314Z,33.70
2022-11-30T09:08:11.403Z,33.80
2022-11-30T09:13:13.427Z,34.60
2022-11-30T09:18:15.576Z,33.70
2022-11-30T09:23:17.668Z,33.60
2022-11-30T09:28:19.846Z,33.50
2022-11-30T09:33:23.053Z,33.50
2022-11-30T09:38:25.301Z,33.30
2022-11-30T09:43:48.261Z,33.40
2022-11-30T09:49:04.668Z,33.50
2022-11-30T09:54:13.998Z,33.50
2022-11-30T09:59:25.783Z,33.30
2022-11-30T10:04:29.850Z,33.30
2022-11-30T10:09:40.931Z,33.40
2022-11-30T10:15:04.476Z,33.50
2022-11-30T10:20:28.954Z,33.50
2022-11-30T10:26:01.495Z,33.50
2022-11-30T10:36:13.115Z,33.40
2022-11-30T10:41:20.982Z,33.10
2022-11-30T10:46:29.152Z,33.10
2022-11-30T10:51:33.471Z,33.10
2022-11-30T10:56:35.508Z,33.40
2022-11-30T11:01:42.347Z,33.60
2022-11-30T11:06:49.185Z,33.70
2022-11-30T11:11:56.315Z,33.60
2022-11-30T11:22:07.006Z,33.20
2022-11-30T11:27:44.582Z,33.20
2022-11-30T11:33:20.447Z,33.20
2022-11-30T11:38:24.602Z,33.10
2022-11-30T11:43:40.541Z,34.00
2022-11-30T11:48:56.331Z,32.60
2022-11-30T11:54:17.557Z,33.40
2022-11-30T11:59:32.693Z,33.50
2022-11-30T12:04:45.662Z,32.80
2022-11-30T12:09:57.840Z,32.50
2022-11-30T12:15:03.193Z,32.90
2022-11-30T12:20:31.088Z,31.80
2022-11-30T12:26:12.236Z,32.10
2022-11-30T12:31:18.428Z,31.70
2022-11-30T12:36:36.231Z,32.20
2022-11-30T12:42:05.076Z,31.90
2022-11-30T12:47:31.665Z,31.60
2022-11-30T12:52:36.461Z,31.30
2022-11-30T12:57:49.485Z,31.70
2022-11-30T13:03:28.756Z,31.00
2022-11-30T13:08:43.195Z,31.30
2022-11-30T13:13:55.799Z,30.80
2022-11-30T13:19:27.306Z,30.70
2022-11-30T13:24:37.478Z,31.30
2022-11-30T13:30:07.061Z,30.60
2022-11-30T13:35:27.990Z,30.50
2022-11-30T13:40:30.540Z,30.80
2022-11-30T13:45:34.916Z,30.50
2022-11-30T13:50:40.734Z,30.70
2022-11-30T13:55:42.780Z,31.40
2022-11-30T14:00:59.823Z,30.50
2022-11-30T14:06:28.834Z,31.30
2022-11-30T14:11:38.801Z,30.40
2022-11-30T14:16:42.555Z,30.60
2022-11-30T14:21:44.951Z,30.50
2022-11-30T14:26:50.335Z,30.60
2022-11-30T14:32:16.469Z,30.70
2022-11-30T14:37:35.717Z,30.80
2022-11-30T14:42:37.868Z,30.70
2022-11-30T14:47:45.204Z,30.80
2022-11-30T14:52:52.818Z,30.80
2022-11-30T14:58:10.669Z,30.80
2022-11-30T15:03:28.423Z,30.80
2022-11-30T15:08:38.051Z,30.80
2022-11-30T15:13:49.561Z,30.90
2022-11-30T15:18:57.168Z,30.70
2022-11-30T15:24:01.158Z,30.80
2022-11-30T15:29:06.138Z,31.00
2022-11-30T15:34:37.255Z,30.90
2022-11-30T15:39:44.534Z,31.70
2022-11-30T15:44:47.646Z,31.00
2022-11-30T15:49:54.738Z,31.10
2022-11-30T15:55:02.030Z,31.00
2022-11-30T16:00:16.378Z,31.00
2022-11-30T16:05:19.681Z,31.00
2022-11-30T16:10:25.789Z,31.30
2022-11-30T16:15:35.076Z,31.20
2022-11-30T16:20:37.205Z,32.00
2022-11-30T16:25:39.247Z,31.90
2022-11-30T16:30:41.953Z,31.30
2022-11-30T16:36:04.255Z,31.10
2022-11-30T16:41:24.919Z,31.20
2022-11-30T16:46:29.056Z,31.20
2022-11-30T16:51:34.419Z,32.00
2022-11-30T16:56:36.511Z,32.00
2022-11-30T17:01:48.328Z,31.40
2022-11-30T17:06:53.679Z,31.40
2022-11-30T17:11:58.058Z,31.50
2022-11-30T17:17:02.877Z,31.40
2022-11-30T17:22:05.193Z,31.50
2022-11-30T17:27:07.318Z,31.60
2022-11-30T17:32:09.479Z,31.60
2022-11-30T17:37:13.562Z,31.60
2022-11-30T17:42:15.639Z,31.70
2022-11-30T17:47:17.895Z,31.60
2022-11-30T17:52:19.993Z,31.60
2022-11-30T17:57:22.107Z,31.60
2022-11-30T18:02:24.309Z,31.80
2022-11-30T18:07:26.671Z,32.10
2022-11-30T18:12:28.791Z,31.90
2022-11-30T18:17:32.012Z,31.90
2022-11-30T18:22:34.138Z,32.00
2022-11-30T18:27:36.219Z,31.90
2022-11-30T18:32:38.370Z,32.00
2022-11-30T18:37:40.473Z,32.10
2022-11-30T18:42:42.532Z,31.90
2022-11-30T18:47:44.574Z,31.90
2022-11-30T18:52:46.696Z,32.00
2022-11-30T18:57:49.026Z,31.90
2022-11-30T19:02:51.303Z,31.90
2022-11-30T19:07:53.630Z,32.40
2022-11-30T19:12:56.200Z,31.80
2022-11-30T19:23:00.695Z,31.50
2022-11-30T19:28:02.716Z,31.50
2022-11-30T19:33:04.840Z,31.40
2022-11-30T19:38:07.048Z,31.30
2022-11-30T19:43:09.060Z,31.20
2022-11-30T19:48:11.139Z,32.10
2022-11-30T19:53:13.230Z,31.10
2022-11-30T19:58:15.455Z,31.00
2022-11-30T20:03:17.585Z,30.80
2022-11-30T20:08:19.683Z,30.50
2022-11-30T20:13:21.781Z,30.50
2022-11-30T20:18:23.889Z,30.30
2022-11-30T20:23:25.957Z,30.30
2022-11-30T20:28:28.105Z,31.20
2022-11-30T20:33:30.267Z,30.20
2022-11-30T20:38:32.765Z,30.10
2022-11-30T20:43:34.839Z,30.00
2022-11-30T20:48:36.908Z,29.90
2022-11-30T20:53:39.849Z,30.00
2022-11-30T20:58:42.649Z,29.70
2022-11-30T21:08:47.650Z,29.20
2022-11-30T21:13:51.044Z,29.30
2022-11-30T21:18:53.097Z,29.50
2022-11-30T21:29:05.236Z,29.40
2022-11-30T21:34:07.732Z,29.40
2022-11-30T21:39:13.881Z,29.40
2022-11-30T21:44:17.151Z,29.50
2022-11-30T21:49:19.254Z,29.60
2022-11-30T21:54:21.382Z,29.60
2022-11-30T21:59:23.478Z,29.60
2022-11-30T22:09:28.290Z,29.60
2022-11-30T22:14:30.438Z,29.50
2022-11-30T22:19:32.984Z,29.50
2022-11-30T22:24:35.077Z,29.60
2022-11-30T22:29:37.191Z,29.70
2022-11-30T22:34:39.281Z,29.70
2022-11-30T22:39:41.362Z,29.70
2022-11-30T22:44:43.434Z,29.60
2022-11-30T22:54:48.589Z,29.20
2022-11-30T22:59:50.811Z,29.00
2022-11-30T23:04:52.856Z,28.90
2022-11-30T23:09:57.200Z,28.80
2022-11-30T23:14:59.309Z,28.60
2022-11-30T23:20:01.579Z,28.60
2022-11-30T23:25:04.047Z,28.60
2022-11-30T23:30:06.982Z,28.20
2022-11-30T23:35:09.431Z,28.40
2022-11-30T23:40:12.153Z,28.30
2022-11-30T23:45:14.182Z,28.40
2022-11-30T23:50:16.201Z,28.20
2022-11-30T23:55:18.259Z,28.20
